Springfield, MO

11:33 PM CST on December 27, 2014 (GMT -0600)
Southview Estates | Change Station
CLOSE
Current Station
Personal Weather Station
Location: Springfield, MO
Elevation: 1191 ft
Nearby Weather Stations

Elev 1191 ft 37.12 °N, 93.33 °W | Updated 3 minutes ago

Partly Cloudy
Partly Cloudy
28.7 °F
Feels Like 29 °F
N
0.0
Wind Variable Wind from NNW
Gusts 0.0 mph

Today
High -- | Low -- °F
--% Chance of Precip.
Yesterday
High -- | Low -- °F
Precip. -- in
7:25 AM 5:03 PM
Waxing Crescent, 44% visible
Pressure 30.29 in
Visibility 10.0 miles
Clouds Clear
Windchill 29 °F
Dew Point 24 °F
Humidity 82%
Rainfall 0.20 in
Snow Depth Not available.
UV 0 out of 12
Pollen 2.80 out of 12
Air Quality Not available.
Flu Activity Not available.
METAR KSGF 280452Z AUTO 32006KT 10SM CLR M02/M04 A3025 RMK AO2 SLP255 T10221044

More Conditions Fewer Conditions

Pressure 30.29 in
Visibility 10.0 miles
Clouds Clear
Windchill 29 °F
Dew Point 24 °F
Humidity 82%
Rainfall 0.20 in
Snow Depth Not available.
UV 0 out of 12
Pollen 2.80 out of 12
Air Quality Not available.
Flu Activity Not available.
METAR KSGF 280452Z AUTO 32006KT 10SM CLR M02/M04 A3025 RMK AO2 SLP255 T10221044

More Conditions Fewer Conditions

10-Day Weather Forecast

Almanac

Astronomy

Dec. 27, 2014 Rise Set
Actual Time
Civil Twilight
Nautical Twilight
Astronomical Twilight
Moon
Length of Visible Light
Length of Day
Tomorrow will be .
, % of the Moon is Illuminated

Today's Extremes

State Highs State Lows

Community

WunderPhotos

Upload Photos

1,781,208 photos uploaded!

WunderBlogs® & News

Nearby

Air Quality

  Air Quality AQ Index Pollutant
Not available.

Snow Depth

Station Depth Elevation

Earthquake Activity

City Distance Mag. Time & Date
Minimum magnitude displayed is 2.5.

Coastal Water Temperatures

Place Temperature

Nearby Weather Stations